Startpagina
METAR-TAF:

METAR-TAF

Vliegvelden :

Yap, Yap Island, Micronesië

breedte: 09-29N, lengte: 138-05E, hoogte: 28 m

Actueel weer

Dit bericht is 51 minuten geleden gemaakt, om 07:55 UTC
Wind 5 kt uit variabele richting
Temperatuur 28°C
Vochtigheid 89%
Druk 1008 hPa
Zicht: 19.3 km
Weinig wolken op 1600 ft
Gebroken wolken op 13000 ft
Geheel bewolkt op 30000 ft

METAR: PTYA 280755Z VRB05KT 12SM FEW016 BKN130 OVC300 28/26 A2977 RMK SHRAB10E25 SLP083 T02800256

Tijdstip: 18:46 (08:46 UTC)

Verwachting

Dit bericht is 3 uur en het 26 minuten geleden gemaakt, om 05:20 UTC
Verwachting geldig van 28 om 06 UTC tot 29 om 06 UTC
Wind 10 kt uit het oostnoordoosten
Zicht: 10 km
Verspreide wolken op 1500 ft
Verspreide wolken op 3000 ft
Gebroken wolken op 13000 ft
buien in de omgeving
Tijdelijke
van 28 om 09 UTC tot 28 om 13 UTC
Zicht: 8.0 km
Verspreide wolken op 1500 ft
Geheel bewolkt op 3000 ft
regenbuien

TAF: PTYA 280520Z 2806/2906 07010KT P6SM VCSH SCT015 SCT030 BKN130 TEMPO 2809/2813 5SM SHRA SCT015 OVC030

Waarnemingen en weersverwachtingen van meer dan 4000 vliegvelden (METAR en TAF).

De beschikbare stations zijn de gele en rode punten op de kaart.

Ga met uw muis naar het station om de naam te zien.

Klik dan om waarnemingen en weersverwachtingen te zien.

kaart wijzigen: klik op de groene knoppen met een zwart kruis om in te zoomen, op de groene knop met een streepje om uit te zoomen of op de groene pijlen voor aangrenzende kaarten.


METAR-TAF: